EETN Airport Information

Runway Information
Runway 08 Length 11417 ft width 148 ft
Elevation 129 ft Threshold 820 ft Heading 90
Runway 26 Length 11417 ft Width 148 ft
Elevation 131 ft Threshold ft Heading 270
Airport Frequencies
Type APP Name APP Frequency 127.9 MHZ
Type ATIS Name ATIS Frequency 124.875 MHZ
Type TWR Name TWR Frequency 120.6 MHZ
Airport Navaids
Type NDB Name Tallinn Frequency 329 KHZ
Type NDB Name Tallinn Frequency 386 KHZ
Type VOR-DME Name Tallinn Frequency 112200 KHZ
Airport Weather Information & NOTAM
ADDS - METARS form results

(2139 UTC 29 June 2022)
Data provider http://aviationweather.gov/metar/data/
 
METAR text: EETN 292120Z 10003KT CAVOK 20/19 Q1018 NOSIG
Conditions at: EETN (TALLINN , EE) observed 2120 UTC 29 June 2022
Temperature: 20.0°C (68°F)
Dewpoint: 19.0°C (66°F) [RH = 94%]
Pressure (altimeter): 30.06 inches Hg (1018.0 mb)
Winds: from the E (100 degrees) at 3 MPH (3 knots; 1.5 m/s)
Visibility: 6 or more miles (10+ km)
Ceiling: ceiling and visibility are OK
Clouds: unknown
Weather: no significant weather observed at this time

METAR text: EETN 292050Z 09005KT CAVOK 20/18 Q1018 NOSIG
Conditions at: EETN (TALLINN , EE) observed 2050 UTC 29 June 2022
Temperature: 20.0°C (68°F)
Dewpoint: 18.0°C (64°F) [RH = 88%]
Pressure (altimeter): 30.06 inches Hg (1018.0 mb)
Winds: from the E (90 degrees) at 6 MPH (5 knots; 2.6 m/s)
Visibility: 6 or more miles (10+ km)
Ceiling: ceiling and visibility are OK
Clouds: unknown
Weather: no significant weather observed at this time

Forecast for: EETN (TALLINN , EE)
Text: TAF EETN 291730Z 2918/3018 04010KT 9999 FEW040
Forecast period: 1800 to 1900 UTC 29 June 2022
Forecast type: FROM: standard forecast or significant change
Winds: from the NE (40 degrees) at 12 MPH (10 knots; 5.1 m/s)
Visibility: 6 or more miles (10+ km)
Ceiling: at least 12,000 feet AGL
Clouds: few clouds at 4000 feet AGL
Weather: no significant weather forecast for this period
Text: TEMPO 2918/2920 SCT030CB
Forecast period: 1800 to 2000 UTC 29 June 2022
Forecast type: TEMPORARY: The following changes expected for less than half the time period
Visibility: missing
Ceiling: at least 12,000 feet AGL
Clouds: scattered clouds at 3000 feet AGL
Weather: no significant weather forecast for this period
Text: BECMG 2919/2920 12006KT
Forecast period: 1900 UTC 29 June 2022 to 1800 UTC 30 June 2022
Forecast type: BECOMING: Conditions expected to become as follows by 2000 UTC 29 June 2022
Winds: from the ESE (120 degrees) at 7 MPH (6 knots; 3.1 m/s)
Visibility: 6 or more miles (10+ km)
Ceiling: at least 12,000 feet AGL
Clouds: few clouds at 4000 feet AGL
Weather: no significant weather forecast for this period
Text: PROB40 2922/3003 3000 BCFG BR BKN003
Forecast period: 2200 UTC 29 June 2022 to 0300 UTC 30 June 2022
Forecast type: PROBABLE: 40 percent likelihood of the following during this time
Visibility: 1.86 miles (2.99 km)
Ceiling: 300 feet AGL
Clouds: broken clouds at 300 feet AGL
Weather: BCFG BR  (patches of fog, mist)